Etusivu
METAR-TAF:

METAR-TAF

Lentoasemat :

Fayette Regional Air Center

La Grange, Texas, Yhdysvallat

Leveyspiiri: 29-54-29N, Pituuspiiri: 096-57-00W, korkeus merenpinnasta: 99 m

Tämänhetkinen sää

Tämä raportti tehtiin 38 minuuttia sitten, kello 06.15 UTC
Tuuli 4 kn etelästä/kaakosta
Lämpötila 27°C
Kosteus 100%
Ilmanpaine 1015 hPa
Näkyvyys: 16.1 km
selkeää

METAR: K3T5 190615Z AUTO 15004KT 10SM CLR 27/27 A2996 RMK AO2 T02650265

Aika: 01:53 (06:53 UTC)


TAF: puuttuu

Säähavainnot ja -ennusteet yli 4000 lentoasemalta (METAR- ja TAF-raportit).

Käytössä olevat sääasemat on merkitty karttaan keltaisilla ja punaisilla pisteillä.

Aseta hiiri pisteen päälle nähdäksesi sääaseman nimen.

Klikkaa sitten nähdäksesi säähavainnot ja -ennusteet.

Kartan vaihtaminen: klikkaa mustalla rastilla varustettuja vihreitä pisteitä, niin voit zoomata sisään; viivalla varustettua vihreää pistettä, niin voit zoomata ulos tai vihreitä nuolia, niin pääset viereisille kartoille.


METAR-TAF: